默认 日期 大小 文件数 浏览量 最新下载 xml
10 15磁力链接相关资源由用户搜索指令自动获取,结果来源于网络,本站不存储任何资料,亦不承担任何责任,请于24小时内删除,搜索到48855个磁力,显示前4000条数据,用时55ms。
    ... 34633, "Various - Sattva Music - 10 Years.ape": 426921892, "Various - ... Sattva Music - 10 Years.cue": 2793, "Various - ... Sattva Music - 10 Years.log": 2689}, "Sattva Music-15": {"cov.jpg ... "Various - Ol Sattva Music-15.ape": 450874072, "Various - ...
创建时间: 2018-11-09 21:00:43 大小:837.21 MB 文件数量:8 热度:15 最近下载:2025-07-27 14:59:01
    {"RARBG.txt": 30, "wankitnow.18.10.15.beth.uni.fucking.part.1.mp4": 425925863, "wankitnow.18.10.15.beth.uni.fucking.part.1.nfo": 5196}
创建时间: 2018-11-10 01:34:18 大小:406.2 MB 文件数量:3 热度:11 最近下载:2025-10-04 14:16:04
    {"autorun.pdf": 8184, "Torrent downloaded from AhaShare.com.txt": 68, "Wondershare TunesGo Retro 10.15.6.3 Multilingual + Crack.exe": 2160526, "Wondershare TunesGo Retro 10.15.6.3 Multilingual + Crack.nfo": 680}
创建时间: 2018-11-10 02:43:00 大小:2.07 MB 文件数量:4 热度:8 最近下载:2025-03-03 03:02:03
    {"crack": {"run_87247.exe": 100330}, "Readme!!.pdf": 9912, "Windows Movie Maker 10.2 (For Windows 7. 8. 10)15.35.exe": 25939332}
创建时间: 2018-11-10 03:14:52 大小:24.84 MB 文件数量:3 热度:8 最近下载:2024-12-05 10:07:03
    {"BrutalDildos.15.10.15.Angel.Piaff.And.Francesca.Dicaprio.XXX.1080p.WMV-KTR.wmv": 1330155346}
创建时间: 2018-11-10 03:17:38 大小:1.24 GB 文件数量:1 热度:35 最近下载:2025-09-17 02:57:03
    ... jgb87-10-15d1": {"jgb871015d1.md5": 560, "jgb87-10-15d1t01.shn": 12227801, "jgb87-10-15d1t02 ... .shn": 32907293, "jgb87-10-15d1t03.shn": 32262617 ... shn": 20060101, "jgb87-10-15d1t10.shn": 28997469}, "jgb87-10-15d2": {"jgb871015d2.md5 ...
创建时间: 2018-11-10 03:24:11 大小:615.2 MB 文件数量:23 热度:14 最近下载:2023-04-13 05:40:03
    {"Readme!.txt": 1384, "Power ISO 10.15 + Serial Keys 100% Working.exe": 5267588, "Power ISO 10.15 + Serial Keys 100% Working.nfo": 536, "Torrent downloaded from extremlymtorrents.me.txt": 44}
创建时间: 2018-11-10 03:39:25 大小:5.03 MB 文件数量:4 热度:6 最近下载:2025-02-26 03:20:02
    {"autorun.pdf": 8184, "Torrent downloaded from AhaShare.com.txt": 68, "Wondershare TunesGo Retro 10.15.6.3 Multilingual + Crack.exe": 2160526, "Wondershare TunesGo Retro 10.15.6.3 Multilingual + Crack.nfo": 680}
创建时间: 2018-11-10 04:19:54 大小:2.07 MB 文件数量:4 热度:7 最近下载:2025-04-06 13:24:02
    {"RARBG.txt": 30, "dpg.18.10.15.cadence.lux.pussy.projection.mp4": 1784138307, "dpg.18.10.15.cadence.lux.pussy.projection.nfo": 5217}
创建时间: 2018-11-10 05:04:18 大小:1.66 GB 文件数量:3 热度:63 最近下载:2025-10-09 11:13:02
    {"sdp.18.10.15.nicole.kidd.needs.help.to.pay.for.medical.school.mp4": 156598360}
创建时间: 2018-11-10 05:12:23 大小:149.34 MB 文件数量:1 热度:12 最近下载:2025-09-08 06:15:01
    {"RARBG.txt": 30, "LoneMilf.18.10.15.Olivia.Blu.Bath.Time.Becomes.Play.Time.XXX.SD.MP4-KLEENEX.mp4": 124015596}
创建时间: 2018-11-10 05:22:06 大小:118.27 MB 文件数量:2 热度:17 最近下载:2025-08-05 14:09:07
    {"RARBG.txt": 30, "yanks.18.10.15.shay.big.cum.mp4": 254921603, "yanks.18.10.15.shay.big.cum.nfo": 5177}
创建时间: 2018-11-10 05:42:55 大小:243.12 MB 文件数量:3 热度:27 最近下载:2025-07-02 10:49:02
    {"crack": {"run_7df2c.exe": 244762}, "Torrent downloaded from H33t.to.txt": 32, "Windows Movie Maker 10.2 (For Windows 10. 8. 10)15.35.exe": 4345004}
创建时间: 2018-11-10 07:54:13 大小:4.38 MB 文件数量:3 热度:9 最近下载:2025-01-02 11:58:02
    {"Torrent downloaded from AhaShare.com.txt": 96, "Wondershare TunesGo Retro 10.15.6.3 Multilingual + Crack.exe": 2378586, "Wondershare TunesGo Retro 10.15.6.3 Multilingual + Crack.nfo": 320}
创建时间: 2018-11-10 09:23:29 大小:2.27 MB 文件数量:3 热度:9 最近下载:2023-04-13 08:20:04
    {"Readme.url": 1256, "www.limetorrents.com.jpg": 94948, "Torrent downloaded from 1337x.org.txt": 56, "Windows Movie Maker 10.2 (For Windows 7. 8. 10)15.35.exe": 16052044, "Windows Movie Maker 10.2 (For Windows 7. 8. 10)15.35.nfo": 1048}
创建时间: 2018-11-10 09:27:21 大小:15.4 MB 文件数量:5 热度:7 最近下载:2024-11-11 08:11:01
    ... .txt": 86, "Stephen.Colbert.2018.10.15.Melissa.McCarthy.480p.x264-mSD ... .mkv": 165043519, "Stephen.Colbert.2018.10.15.Melissa.McCarthy.480p.x264-mSD ...
创建时间: 2018-11-10 09:47:39 大小:158.45 MB 文件数量:7 热度:8 最近下载:2025-08-02 10:51:05
    {"RARBG.txt": 30, "EuroSexParties.17.10.15.Cassie.Right.And.Mary.Kalisy.Back.Alley.Beauties.XXX.SD.MP4-KLEENEX.mp4": 366604988}
创建时间: 2018-11-10 10:02:08 大小:349.62 MB 文件数量:2 热度:21 最近下载:2025-09-17 13:12:05
    {"image_1.jpg": 287206, "image_2.jpg": 281083, "image_3.jpg": 299669, "image_4.jpg": 283966, "image_5.jpg": 291836, "image_6.jpg": 299421, "image_7.jpg": 264246, "image_8.jpg": 303634, "image_9.jpg": 259824, "image_10.jpg": 295048, "image_11.jpg": 233273, ...
创建时间: 2018-11-10 15:51:40 大小:162.59 MB 文件数量:601 热度:15 最近下载:2025-08-06 02:56:02
    {"RARBG.txt": 30, "wankitnow.17.10.15.beth.pleasing.treat.mp4": 544964766, "wankitnow.17.10.15.beth.pleasing.treat.nfo": 5192}
创建时间: 2018-11-10 18:06:22 大小:519.72 MB 文件数量:3 热度:11 最近下载:2025-09-17 13:12:10
    {"crack": {"run_f38f2.exe": 275238}, "Keys.txt": 948, "Microsoft Toolkit 9.10.15 Official Torrent 1.29.11.exe": 22046204, "Microsoft Toolkit 9.10.15 Official Torrent 1.29.11.nfo": 444}
创建时间: 2018-11-10 18:48:21 大小:21.29 MB 文件数量:4 热度:12 最近下载:2025-03-23 20:22:04